sensor_id;sensor_type;location;lat;lon;timestamp;P1;durP1;ratioP1;P2;durP2;ratioP2
4569;SDS011;2297;51.442;6.996;2023-02-17T00:01:47;21.67;;;12.45;;
4569;SDS011;2297;51.442;6.996;2023-02-17T00:04:14;20.80;;;11.63;;
4569;SDS011;2297;51.442;6.996;2023-02-17T00:06:40;19.77;;;12.30;;
4569;SDS011;2297;51.442;6.996;2023-02-17T00:09:07;21.10;;;12.80;;
4569;SDS011;2297;51.442;6.996;2023-02-17T00:11:33;22.02;;;11.82;;
4569;SDS011;2297;51.442;6.996;2023-02-17T00:14:00;21.15;;;11.82;;
4569;SDS011;2297;51.442;6.996;2023-02-17T00:16:27;20.83;;;10.85;;
4569;SDS011;2297;51.442;6.996;2023-02-17T00:18:56;16.65;;;10.85;;
4569;SDS011;2297;51.442;6.996;2023-02-17T00:21:25;17.08;;;11.13;;
4569;SDS011;2297;51.442;6.996;2023-02-17T00:23:54;21.05;;;11.80;;
4569;SDS011;2297;51.442;6.996;2023-02-17T00:26:22;20.00;;;11.00;;
4569;SDS011;2297;51.442;6.996;2023-02-17T00:28:49;22.60;;;11.65;;
4569;SDS011;2297;51.442;6.996;2023-02-17T00:31:17;19.38;;;11.10;;
4569;SDS011;2297;51.442;6.996;2023-02-17T00:33:46;18.90;;;10.93;;
4569;SDS011;2297;51.442;6.996;2023-02-17T00:36:15;15.93;;;10.10;;
4569;SDS011;2297;51.442;6.996;2023-02-17T00:38:42;17.83;;;10.77;;
4569;SDS011;2297;51.442;6.996;2023-02-17T00:41:09;20.92;;;11.13;;
4569;SDS011;2297;51.442;6.996;2023-02-17T00:43:36;16.23;;;10.10;;
4569;SDS011;2297;51.442;6.996;2023-02-17T00:46:03;18.45;;;10.32;;
4569;SDS011;2297;51.442;6.996;2023-02-17T00:48:30;18.17;;;10.23;;
4569;SDS011;2297;51.442;6.996;2023-02-17T00:50:57;14.43;;;9.55;;
4569;SDS011;2297;51.442;6.996;2023-02-17T00:53:25;15.93;;;9.60;;
4569;SDS011;2297;51.442;6.996;2023-02-17T00:55:52;17.55;;;10.02;;
4569;SDS011;2297;51.442;6.996;2023-02-17T00:58:19;18.63;;;9.55;;
4569;SDS011;2297;51.442;6.996;2023-02-17T01:00:45;18.70;;;9.57;;
4569;SDS011;2297;51.442;6.996;2023-02-17T01:03:12;14.75;;;8.90;;
4569;SDS011;2297;51.442;6.996;2023-02-17T01:05:39;19.70;;;10.20;;
4569;SDS011;2297;51.442;6.996;2023-02-17T01:08:07;18.80;;;10.85;;
4569;SDS011;2297;51.442;6.996;2023-02-17T01:10:36;16.35;;;9.80;;
4569;SDS011;2297;51.442;6.996;2023-02-17T01:13:03;16.42;;;9.77;;
4569;SDS011;2297;51.442;6.996;2023-02-17T01:15:31;17.48;;;10.63;;
4569;SDS011;2297;51.442;6.996;2023-02-17T01:18:02;16.98;;;10.43;;
4569;SDS011;2297;51.442;6.996;2023-02-17T01:20:28;17.73;;;11.10;;
4569;SDS011;2297;51.442;6.996;2023-02-17T01:22:55;17.92;;;10.68;;
4569;SDS011;2297;51.442;6.996;2023-02-17T01:25:22;16.98;;;10.63;;
4569;SDS011;2297;51.442;6.996;2023-02-17T01:27:50;19.00;;;11.18;;
4569;SDS011;2297;51.442;6.996;2023-02-17T01:30:16;18.40;;;10.15;;
4569;SDS011;2297;51.442;6.996;2023-02-17T01:32:43;17.77;;;11.00;;
4569;SDS011;2297;51.442;6.996;2023-02-17T01:35:10;24.13;;;11.32;;
4569;SDS011;2297;51.442;6.996;2023-02-17T01:37:37;19.70;;;11.00;;
4569;SDS011;2297;51.442;6.996;2023-02-17T01:40:04;48.72;;;24.38;;
4569;SDS011;2297;51.442;6.996;2023-02-17T01:42:31;20.83;;;12.85;;
4569;SDS011;2297;51.442;6.996;2023-02-17T01:48:07;17.40;;;10.82;;
4569;SDS011;2297;51.442;6.996;2023-02-17T01:50:38;18.58;;;10.40;;
4569;SDS011;2297;51.442;6.996;2023-02-17T01:53:08;19.00;;;10.38;;
4569;SDS011;2297;51.442;6.996;2023-02-17T01:55:38;20.88;;;10.95;;
4569;SDS011;2297;51.442;6.996;2023-02-17T01:58:07;19.45;;;10.88;;
4569;SDS011;2297;51.442;6.996;2023-02-17T02:00:38;20.08;;;11.85;;
4569;SDS011;2297;51.442;6.996;2023-02-17T02:03:05;19.85;;;12.18;;
4569;SDS011;2297;51.442;6.996;2023-02-17T02:05:36;18.25;;;10.20;;
4569;SDS011;2297;51.442;6.996;2023-02-17T02:08:04;15.43;;;10.15;;
4569;SDS011;2297;51.442;6.996;2023-02-17T02:10:31;18.02;;;10.93;;
4569;SDS011;2297;51.442;6.996;2023-02-17T02:12:58;33.40;;;17.58;;
4569;SDS011;2297;51.442;6.996;2023-02-17T02:15:25;20.25;;;11.68;;
4569;SDS011;2297;51.442;6.996;2023-02-17T02:18:02;17.48;;;10.93;;
4569;SDS011;2297;51.442;6.996;2023-02-17T02:20:46;21.48;;;10.57;;
4569;SDS011;2297;51.442;6.996;2023-02-17T02:23:40;49.60;;;13.32;;
4569;SDS011;2297;51.442;6.996;2023-02-17T02:29:23;19.83;;;10.73;;
4569;SDS011;2297;51.442;6.996;2023-02-17T02:32:18;16.23;;;9.88;;
4569;SDS011;2297;51.442;6.996;2023-02-17T02:34:52;15.20;;;8.85;;
4569;SDS011;2297;51.442;6.996;2023-02-17T02:37:24;14.55;;;9.40;;
4569;SDS011;2297;51.442;6.996;2023-02-17T02:39:56;18.33;;;9.90;;
4569;SDS011;2297;51.442;6.996;2023-02-17T02:42:28;14.88;;;9.43;;
4569;SDS011;2297;51.442;6.996;2023-02-17T02:44:55;17.25;;;10.07;;
4569;SDS011;2297;51.442;6.996;2023-02-17T02:47:40;15.70;;;10.20;;
4569;SDS011;2297;51.442;6.996;2023-02-17T02:50:11;14.85;;;10.00;;
4569;SDS011;2297;51.442;6.996;2023-02-17T02:52:44;16.90;;;9.07;;
4569;SDS011;2297;51.442;6.996;2023-02-17T02:55:21;12.55;;;8.27;;
4569;SDS011;2297;51.442;6.996;2023-02-17T02:57:58;13.07;;;8.93;;
4569;SDS011;2297;51.442;6.996;2023-02-17T03:00:32;16.88;;;9.20;;
4569;SDS011;2297;51.442;6.996;2023-02-17T03:03:07;12.98;;;9.00;;
4569;SDS011;2297;51.442;6.996;2023-02-17T03:05:42;12.80;;;8.88;;
4569;SDS011;2297;51.442;6.996;2023-02-17T03:08:18;14.85;;;9.18;;
4569;SDS011;2297;51.442;6.996;2023-02-17T03:10:51;12.57;;;8.50;;
4569;SDS011;2297;51.442;6.996;2023-02-17T03:13:19;14.02;;;9.18;;
4569;SDS011;2297;51.442;6.996;2023-02-17T03:15:47;15.35;;;9.57;;
4569;SDS011;2297;51.442;6.996;2023-02-17T03:18:15;16.75;;;9.07;;
4569;SDS011;2297;51.442;6.996;2023-02-17T03:20:42;13.98;;;9.57;;
4569;SDS011;2297;51.442;6.996;2023-02-17T03:23:13;12.70;;;9.02;;
4569;SDS011;2297;51.442;6.996;2023-02-17T03:25:40;15.10;;;9.23;;
4569;SDS011;2297;51.442;6.996;2023-02-17T03:28:09;13.20;;;9.02;;
4569;SDS011;2297;51.442;6.996;2023-02-17T03:30:35;12.50;;;8.85;;
4569;SDS011;2297;51.442;6.996;2023-02-17T03:33:02;13.10;;;8.68;;
4569;SDS011;2297;51.442;6.996;2023-02-17T03:35:31;12.65;;;8.50;;
4569;SDS011;2297;51.442;6.996;2023-02-17T03:37:57;10.68;;;8.27;;
4569;SDS011;2297;51.442;6.996;2023-02-17T03:40:24;12.25;;;9.20;;
4569;SDS011;2297;51.442;6.996;2023-02-17T03:42:51;11.68;;;8.48;;
4569;SDS011;2297;51.442;6.996;2023-02-17T03:45:17;11.93;;;8.30;;
4569;SDS011;2297;51.442;6.996;2023-02-17T03:47:44;15.52;;;8.85;;
4569;SDS011;2297;51.442;6.996;2023-02-17T03:50:10;12.27;;;8.75;;
4569;SDS011;2297;51.442;6.996;2023-02-17T03:52:38;10.68;;;8.15;;
4569;SDS011;2297;51.442;6.996;2023-02-17T03:55:05;14.00;;;8.32;;
4569;SDS011;2297;51.442;6.996;2023-02-17T03:57:32;12.43;;;7.88;;
4569;SDS011;2297;51.442;6.996;2023-02-17T03:59:58;12.77;;;8.50;;
4569;SDS011;2297;51.442;6.996;2023-02-17T04:02:25;12.20;;;8.23;;
4569;SDS011;2297;51.442;6.996;2023-02-17T04:04:52;12.73;;;8.15;;
4569;SDS011;2297;51.442;6.996;2023-02-17T04:07:19;12.55;;;8.20;;
4569;SDS011;2297;51.442;6.996;2023-02-17T04:09:46;11.73;;;8.00;;
4569;SDS011;2297;51.442;6.996;2023-02-17T04:12:13;11.48;;;8.02;;
4569;SDS011;2297;51.442;6.996;2023-02-17T04:17:40;11.05;;;7.80;;
4569;SDS011;2297;51.442;6.996;2023-02-17T04:20:07;13.00;;;7.65;;
4569;SDS011;2297;51.442;6.996;2023-02-17T04:22:35;11.48;;;7.80;;
4569;SDS011;2297;51.442;6.996;2023-02-17T04:25:03;11.90;;;7.82;;
4569;SDS011;2297;51.442;6.996;2023-02-17T04:27:29;11.25;;;7.80;;
4569;SDS011;2297;51.442;6.996;2023-02-17T04:29:56;11.38;;;7.80;;
4569;SDS011;2297;51.442;6.996;2023-02-17T04:32:22;12.88;;;8.38;;
4569;SDS011;2297;51.442;6.996;2023-02-17T04:34:49;13.00;;;8.27;;
4569;SDS011;2297;51.442;6.996;2023-02-17T04:37:16;13.90;;;8.13;;
4569;SDS011;2297;51.442;6.996;2023-02-17T04:39:42;13.30;;;8.13;;
4569;SDS011;2297;51.442;6.996;2023-02-17T04:42:10;10.95;;;7.15;;
4569;SDS011;2297;51.442;6.996;2023-02-17T04:44:37;11.18;;;7.75;;
4569;SDS011;2297;51.442;6.996;2023-02-17T04:47:04;11.63;;;7.60;;
4569;SDS011;2297;51.442;6.996;2023-02-17T04:49:30;11.18;;;7.90;;
4569;SDS011;2297;51.442;6.996;2023-02-17T04:51:57;31.75;;;16.80;;
4569;SDS011;2297;51.442;6.996;2023-02-17T04:54:23;13.77;;;8.77;;
4569;SDS011;2297;51.442;6.996;2023-02-17T04:56:50;10.27;;;7.63;;
4569;SDS011;2297;51.442;6.996;2023-02-17T04:59:18;11.52;;;7.43;;
4569;SDS011;2297;51.442;6.996;2023-02-17T05:01:44;11.88;;;7.63;;
4569;SDS011;2297;51.442;6.996;2023-02-17T05:04:11;11.52;;;8.13;;
4569;SDS011;2297;51.442;6.996;2023-02-17T05:06:38;11.93;;;7.97;;
4569;SDS011;2297;51.442;6.996;2023-02-17T05:09:04;11.60;;;7.90;;
4569;SDS011;2297;51.442;6.996;2023-02-17T05:11:31;11.75;;;7.97;;
4569;SDS011;2297;51.442;6.996;2023-02-17T05:13:57;11.48;;;8.13;;
4569;SDS011;2297;51.442;6.996;2023-02-17T05:16:25;11.07;;;7.28;;
4569;SDS011;2297;51.442;6.996;2023-02-17T05:18:52;9.90;;;6.97;;
4569;SDS011;2297;51.442;6.996;2023-02-17T05:21:19;9.40;;;7.05;;
4569;SDS011;2297;51.442;6.996;2023-02-17T05:23:45;10.25;;;6.82;;
4569;SDS011;2297;51.442;6.996;2023-02-17T05:26:12;10.32;;;7.07;;
4569;SDS011;2297;51.442;6.996;2023-02-17T05:28:39;9.32;;;6.53;;
4569;SDS011;2297;51.442;6.996;2023-02-17T05:31:05;10.80;;;7.50;;
4569;SDS011;2297;51.442;6.996;2023-02-17T05:33:33;10.55;;;7.10;;
4569;SDS011;2297;51.442;6.996;2023-02-17T05:36:00;11.25;;;7.30;;
4569;SDS011;2297;51.442;6.996;2023-02-17T05:38:28;11.90;;;8.30;;
4569;SDS011;2297;51.442;6.996;2023-02-17T05:40:54;12.23;;;7.43;;
4569;SDS011;2297;51.442;6.996;2023-02-17T05:43:21;12.77;;;8.50;;
4569;SDS011;2297;51.442;6.996;2023-02-17T05:45:48;13.75;;;9.02;;
4569;SDS011;2297;51.442;6.996;2023-02-17T05:48:15;13.30;;;8.68;;
4569;SDS011;2297;51.442;6.996;2023-02-17T05:50:43;11.55;;;8.57;;
4569;SDS011;2297;51.442;6.996;2023-02-17T05:53:09;11.77;;;8.18;;
4569;SDS011;2297;51.442;6.996;2023-02-17T05:55:36;11.98;;;8.57;;
4569;SDS011;2297;51.442;6.996;2023-02-17T05:58:03;14.52;;;8.40;;
4569;SDS011;2297;51.442;6.996;2023-02-17T06:00:30;12.10;;;8.27;;
4569;SDS011;2297;51.442;6.996;2023-02-17T06:02:56;12.65;;;8.30;;
4569;SDS011;2297;51.442;6.996;2023-02-17T06:05:23;9.77;;;7.13;;
4569;SDS011;2297;51.442;6.996;2023-02-17T06:07:51;12.45;;;7.57;;
4569;SDS011;2297;51.442;6.996;2023-02-17T06:10:17;9.52;;;6.47;;
4569;SDS011;2297;51.442;6.996;2023-02-17T06:12:44;11.98;;;7.47;;
4569;SDS011;2297;51.442;6.996;2023-02-17T06:15:11;11.15;;;7.15;;
4569;SDS011;2297;51.442;6.996;2023-02-17T06:17:37;11.23;;;7.20;;
4569;SDS011;2297;51.442;6.996;2023-02-17T06:20:05;11.57;;;8.48;;
4569;SDS011;2297;51.442;6.996;2023-02-17T06:22:33;12.93;;;7.97;;
4569;SDS011;2297;51.442;6.996;2023-02-17T06:25:01;12.30;;;8.27;;
4569;SDS011;2297;51.442;6.996;2023-02-17T06:27:27;12.85;;;8.20;;
4569;SDS011;2297;51.442;6.996;2023-02-17T06:29:54;11.55;;;8.02;;
4569;SDS011;2297;51.442;6.996;2023-02-17T06:32:21;11.98;;;7.85;;
4569;SDS011;2297;51.442;6.996;2023-02-17T06:34:47;12.30;;;7.80;;
4569;SDS011;2297;51.442;6.996;2023-02-17T06:37:14;12.13;;;7.90;;
4569;SDS011;2297;51.442;6.996;2023-02-17T06:39:40;13.65;;;7.97;;
4569;SDS011;2297;51.442;6.996;2023-02-17T06:42:08;11.80;;;8.15;;
4569;SDS011;2297;51.442;6.996;2023-02-17T06:44:35;12.15;;;8.25;;
4569;SDS011;2297;51.442;6.996;2023-02-17T06:47:01;12.43;;;7.35;;
4569;SDS011;2297;51.442;6.996;2023-02-17T06:49:28;12.65;;;7.55;;
4569;SDS011;2297;51.442;6.996;2023-02-17T06:51:55;15.05;;;8.15;;
4569;SDS011;2297;51.442;6.996;2023-02-17T06:54:21;12.88;;;8.55;;
4569;SDS011;2297;51.442;6.996;2023-02-17T06:56:48;11.90;;;8.00;;
4569;SDS011;2297;51.442;6.996;2023-02-17T06:59:16;12.30;;;7.60;;
4569;SDS011;2297;51.442;6.996;2023-02-17T07:01:42;10.98;;;7.95;;
4569;SDS011;2297;51.442;6.996;2023-02-17T07:04:09;10.75;;;7.65;;
4569;SDS011;2297;51.442;6.996;2023-02-17T07:06:36;10.50;;;7.57;;
4569;SDS011;2297;51.442;6.996;2023-02-17T07:09:02;12.40;;;8.05;;
4569;SDS011;2297;51.442;6.996;2023-02-17T07:11:29;12.05;;;8.57;;
4569;SDS011;2297;51.442;6.996;2023-02-17T07:13:57;11.00;;;7.97;;
4569;SDS011;2297;51.442;6.996;2023-02-17T07:16:25;11.75;;;8.32;;
4569;SDS011;2297;51.442;6.996;2023-02-17T07:18:51;12.25;;;8.45;;
4569;SDS011;2297;51.442;6.996;2023-02-17T07:21:18;13.20;;;7.93;;
4569;SDS011;2297;51.442;6.996;2023-02-17T07:23:44;13.20;;;8.02;;
4569;SDS011;2297;51.442;6.996;2023-02-17T07:26:12;12.73;;;8.35;;
4569;SDS011;2297;51.442;6.996;2023-02-17T07:28:39;14.38;;;8.25;;
4569;SDS011;2297;51.442;6.996;2023-02-17T07:31:06;13.77;;;8.63;;
4569;SDS011;2297;51.442;6.996;2023-02-17T07:33:35;14.13;;;8.40;;
4569;SDS011;2297;51.442;6.996;2023-02-17T07:36:04;11.35;;;8.20;;
4569;SDS011;2297;51.442;6.996;2023-02-17T07:38:31;12.77;;;8.73;;
4569;SDS011;2297;51.442;6.996;2023-02-17T07:41:02;10.80;;;7.93;;
4569;SDS011;2297;51.442;6.996;2023-02-17T07:43:30;14.65;;;9.02;;
4569;SDS011;2297;51.442;6.996;2023-02-17T07:45:56;12.60;;;8.98;;
4569;SDS011;2297;51.442;6.996;2023-02-17T07:48:23;12.00;;;8.82;;
4569;SDS011;2297;51.442;6.996;2023-02-17T07:50:51;12.45;;;8.50;;
4569;SDS011;2297;51.442;6.996;2023-02-17T07:53:18;14.68;;;8.75;;
4569;SDS011;2297;51.442;6.996;2023-02-17T07:55:44;12.75;;;8.85;;
4569;SDS011;2297;51.442;6.996;2023-02-17T07:58:11;12.82;;;9.13;;
4569;SDS011;2297;51.442;6.996;2023-02-17T08:00:38;12.77;;;9.27;;
4569;SDS011;2297;51.442;6.996;2023-02-17T08:03:04;12.10;;;8.65;;
4569;SDS011;2297;51.442;6.996;2023-02-17T08:05:31;12.18;;;8.65;;
4569;SDS011;2297;51.442;6.996;2023-02-17T08:07:59;14.13;;;8.52;;
4569;SDS011;2297;51.442;6.996;2023-02-17T08:10:43;12.23;;;8.25;;
4569;SDS011;2297;51.442;6.996;2023-02-17T08:13:27;12.63;;;8.45;;
4569;SDS011;2297;51.442;6.996;2023-02-17T08:15:53;12.77;;;8.23;;
4569;SDS011;2297;51.442;6.996;2023-02-17T08:18:20;11.55;;;7.10;;
4569;SDS011;2297;51.442;6.996;2023-02-17T08:20:46;11.80;;;7.75;;
4569;SDS011;2297;51.442;6.996;2023-02-17T08:23:15;10.02;;;7.32;;
4569;SDS011;2297;51.442;6.996;2023-02-17T08:25:42;10.20;;;7.13;;
4569;SDS011;2297;51.442;6.996;2023-02-17T08:28:09;12.13;;;7.57;;
4569;SDS011;2297;51.442;6.996;2023-02-17T08:30:36;11.60;;;7.47;;
4569;SDS011;2297;51.442;6.996;2023-02-17T08:33:03;11.52;;;7.95;;
4569;SDS011;2297;51.442;6.996;2023-02-17T08:35:30;10.05;;;7.20;;
4569;SDS011;2297;51.442;6.996;2023-02-17T08:37:57;12.52;;;7.57;;
4569;SDS011;2297;51.442;6.996;2023-02-17T08:40:25;10.65;;;7.15;;
4569;SDS011;2297;51.442;6.996;2023-02-17T08:42:52;10.48;;;6.88;;
4569;SDS011;2297;51.442;6.996;2023-02-17T08:45:18;9.57;;;6.90;;
4569;SDS011;2297;51.442;6.996;2023-02-17T08:47:45;10.15;;;6.82;;
4569;SDS011;2297;51.442;6.996;2023-02-17T08:50:15;10.50;;;6.68;;
4569;SDS011;2297;51.442;6.996;2023-02-17T08:52:43;9.13;;;6.60;;
4569;SDS011;2297;51.442;6.996;2023-02-17T08:55:10;10.48;;;6.78;;
4569;SDS011;2297;51.442;6.996;2023-02-17T08:57:39;10.65;;;6.43;;
4569;SDS011;2297;51.442;6.996;2023-02-17T09:00:07;10.18;;;6.32;;
4569;SDS011;2297;51.442;6.996;2023-02-17T09:02:34;14.05;;;6.97;;
4569;SDS011;2297;51.442;6.996;2023-02-17T09:05:02;11.25;;;6.82;;
4569;SDS011;2297;51.442;6.996;2023-02-17T09:07:30;11.18;;;7.47;;
4569;SDS011;2297;51.442;6.996;2023-02-17T09:09:56;10.70;;;6.90;;
4569;SDS011;2297;51.442;6.996;2023-02-17T09:12:23;8.55;;;5.93;;
4569;SDS011;2297;51.442;6.996;2023-02-17T09:14:51;10.00;;;6.50;;
4569;SDS011;2297;51.442;6.996;2023-02-17T09:17:17;9.90;;;6.72;;
4569;SDS011;2297;51.442;6.996;2023-02-17T09:19:44;11.05;;;6.45;;
4569;SDS011;2297;51.442;6.996;2023-02-17T09:22:11;8.95;;;6.45;;
4569;SDS011;2297;51.442;6.996;2023-02-17T09:24:39;9.05;;;6.38;;
4569;SDS011;2297;51.442;6.996;2023-02-17T09:27:05;10.35;;;6.70;;
4569;SDS011;2297;51.442;6.996;2023-02-17T09:29:32;10.25;;;6.55;;
4569;SDS011;2297;51.442;6.996;2023-02-17T09:32:00;10.73;;;6.60;;
4569;SDS011;2297;51.442;6.996;2023-02-17T09:34:26;9.82;;;6.20;;
4569;SDS011;2297;51.442;6.996;2023-02-17T09:36:53;10.52;;;5.93;;
4569;SDS011;2297;51.442;6.996;2023-02-17T09:39:20;9.05;;;6.35;;
4569;SDS011;2297;51.442;6.996;2023-02-17T09:41:48;10.18;;;6.18;;
4569;SDS011;2297;51.442;6.996;2023-02-17T09:44:19;8.65;;;6.25;;
4569;SDS011;2297;51.442;6.996;2023-02-17T09:46:50;10.07;;;6.40;;
4569;SDS011;2297;51.442;6.996;2023-02-17T09:49:27;8.35;;;5.57;;
4569;SDS011;2297;51.442;6.996;2023-02-17T09:54:31;9.75;;;6.10;;
4569;SDS011;2297;51.442;6.996;2023-02-17T09:57:02;10.25;;;6.10;;
4569;SDS011;2297;51.442;6.996;2023-02-17T09:59:34;9.60;;;6.45;;
4569;SDS011;2297;51.442;6.996;2023-02-17T10:02:05;9.85;;;6.30;;
4569;SDS011;2297;51.442;6.996;2023-02-17T10:04:38;7.82;;;5.18;;
4569;SDS011;2297;51.442;6.996;2023-02-17T10:07:10;9.40;;;5.97;;
4569;SDS011;2297;51.442;6.996;2023-02-17T10:09:44;8.75;;;5.80;;
4569;SDS011;2297;51.442;6.996;2023-02-17T10:12:14;8.07;;;5.82;;
4569;SDS011;2297;51.442;6.996;2023-02-17T10:14:45;9.00;;;5.70;;
4569;SDS011;2297;51.442;6.996;2023-02-17T10:17:17;8.50;;;5.50;;
4569;SDS011;2297;51.442;6.996;2023-02-17T10:19:53;9.45;;;5.55;;
4569;SDS011;2297;51.442;6.996;2023-02-17T10:22:23;8.55;;;5.85;;
4569;SDS011;2297;51.442;6.996;2023-02-17T10:24:52;9.85;;;5.93;;
4569;SDS011;2297;51.442;6.996;2023-02-17T10:27:22;8.85;;;6.07;;
4569;SDS011;2297;51.442;6.996;2023-02-17T10:30:00;10.07;;;6.13;;
4569;SDS011;2297;51.442;6.996;2023-02-17T10:32:41;10.35;;;5.90;;
4569;SDS011;2297;51.442;6.996;2023-02-17T10:35:21;10.77;;;6.07;;
4569;SDS011;2297;51.442;6.996;2023-02-17T10:43:46;8.75;;;6.00;;
4569;SDS011;2297;51.442;6.996;2023-02-17T10:46:14;12.05;;;6.60;;
4569;SDS011;2297;51.442;6.996;2023-02-17T10:48:44;9.07;;;5.95;;
4569;SDS011;2297;51.442;6.996;2023-02-17T10:51:17;10.43;;;7.70;;
4569;SDS011;2297;51.442;6.996;2023-02-17T10:53:47;13.73;;;7.53;;
4569;SDS011;2297;51.442;6.996;2023-02-17T10:56:18;10.18;;;6.80;;
4569;SDS011;2297;51.442;6.996;2023-02-17T10:58:49;8.50;;;6.22;;
4569;SDS011;2297;51.442;6.996;2023-02-17T11:01:20;8.63;;;5.68;;
4569;SDS011;2297;51.442;6.996;2023-02-17T11:03:57;6.53;;;4.63;;
4569;SDS011;2297;51.442;6.996;2023-02-17T11:06:26;10.30;;;5.47;;
4569;SDS011;2297;51.442;6.996;2023-02-17T11:08:55;8.52;;;5.60;;
4569;SDS011;2297;51.442;6.996;2023-02-17T11:11:25;8.27;;;5.22;;
4569;SDS011;2297;51.442;6.996;2023-02-17T11:13:57;8.35;;;4.80;;
4569;SDS011;2297;51.442;6.996;2023-02-17T11:18:58;10.75;;;6.50;;
4569;SDS011;2297;51.442;6.996;2023-02-17T11:21:28;7.97;;;5.80;;
4569;SDS011;2297;51.442;6.996;2023-02-17T11:23:58;7.97;;;5.47;;
4569;SDS011;2297;51.442;6.996;2023-02-17T11:26:26;11.32;;;5.18;;
4569;SDS011;2297;51.442;6.996;2023-02-17T11:29:05;7.47;;;4.47;;
4569;SDS011;2297;51.442;6.996;2023-02-17T11:31:33;6.93;;;4.15;;
4569;SDS011;2297;51.442;6.996;2023-02-17T11:34:09;10.40;;;4.57;;
4569;SDS011;2297;51.442;6.996;2023-02-17T11:36:38;7.00;;;4.63;;
4569;SDS011;2297;51.442;6.996;2023-02-17T11:39:14;7.47;;;4.78;;
4569;SDS011;2297;51.442;6.996;2023-02-17T11:41:42;10.00;;;5.60;;
4569;SDS011;2297;51.442;6.996;2023-02-17T11:44:09;7.35;;;4.70;;
4569;SDS011;2297;51.442;6.996;2023-02-17T11:46:37;8.35;;;3.95;;
4569;SDS011;2297;51.442;6.996;2023-02-17T11:49:22;8.45;;;5.13;;
4569;SDS011;2297;51.442;6.996;2023-02-17T11:52:06;8.80;;;5.07;;
4569;SDS011;2297;51.442;6.996;2023-02-17T11:54:46;8.68;;;4.93;;
4569;SDS011;2297;51.442;6.996;2023-02-17T11:57:27;10.13;;;4.90;;
4569;SDS011;2297;51.442;6.996;2023-02-17T12:00:08;7.88;;;4.75;;
4569;SDS011;2297;51.442;6.996;2023-02-17T12:02:43;7.03;;;4.55;;
4569;SDS011;2297;51.442;6.996;2023-02-17T12:05:22;10.52;;;4.38;;
4569;SDS011;2297;51.442;6.996;2023-02-17T12:10:44;7.05;;;4.35;;
4569;SDS011;2297;51.442;6.996;2023-02-17T12:13:26;9.30;;;4.65;;
4569;SDS011;2297;51.442;6.996;2023-02-17T12:16:08;8.20;;;4.15;;
4569;SDS011;2297;51.442;6.996;2023-02-17T12:18:48;7.60;;;4.72;;
4569;SDS011;2297;51.442;6.996;2023-02-17T12:21:29;10.00;;;5.03;;
4569;SDS011;2297;51.442;6.996;2023-02-17T12:24:10;9.00;;;4.35;;
4569;SDS011;2297;51.442;6.996;2023-02-17T12:26:48;9.00;;;4.80;;
4569;SDS011;2297;51.442;6.996;2023-02-17T12:29:24;6.10;;;4.13;;
4569;SDS011;2297;51.442;6.996;2023-02-17T12:32:09;6.20;;;3.90;;
4569;SDS011;2297;51.442;6.996;2023-02-17T12:34:52;5.90;;;4.43;;
4569;SDS011;2297;51.442;6.996;2023-02-17T12:37:24;6.85;;;3.88;;
4569;SDS011;2297;51.442;6.996;2023-02-17T12:39:58;7.82;;;4.35;;
4569;SDS011;2297;51.442;6.996;2023-02-17T12:42:29;5.82;;;3.83;;
4569;SDS011;2297;51.442;6.996;2023-02-17T12:45:01;5.03;;;3.53;;
4569;SDS011;2297;51.442;6.996;2023-02-17T12:47:30;7.53;;;3.90;;
4569;SDS011;2297;51.442;6.996;2023-02-17T12:50:13;9.23;;;3.80;;
4569;SDS011;2297;51.442;6.996;2023-02-17T12:52:45;6.20;;;3.90;;
4569;SDS011;2297;51.442;6.996;2023-02-17T12:55:19;7.18;;;3.72;;
4569;SDS011;2297;51.442;6.996;2023-02-17T12:57:48;5.28;;;3.55;;
4569;SDS011;2297;51.442;6.996;2023-02-17T13:00:21;5.90;;;3.17;;
4569;SDS011;2297;51.442;6.996;2023-02-17T13:02:55;9.35;;;4.03;;
4569;SDS011;2297;51.442;6.996;2023-02-17T13:05:23;6.50;;;3.67;;
4569;SDS011;2297;51.442;6.996;2023-02-17T13:07:55;5.45;;;3.17;;
4569;SDS011;2297;51.442;6.996;2023-02-17T13:10:32;3.83;;;2.95;;
4569;SDS011;2297;51.442;6.996;2023-02-17T13:13:02;4.38;;;3.17;;
4569;SDS011;2297;51.442;6.996;2023-02-17T13:18:52;3.35;;;2.60;;
4569;SDS011;2297;51.442;6.996;2023-02-17T13:21:25;7.45;;;3.05;;
4569;SDS011;2297;51.442;6.996;2023-02-17T13:23:57;5.97;;;3.33;;
4569;SDS011;2297;51.442;6.996;2023-02-17T13:26:28;3.85;;;2.67;;
4569;SDS011;2297;51.442;6.996;2023-02-17T13:31:57;6.18;;;2.80;;
4569;SDS011;2297;51.442;6.996;2023-02-17T13:34:27;3.85;;;2.67;;
4569;SDS011;2297;51.442;6.996;2023-02-17T13:36:57;4.05;;;2.83;;
4569;SDS011;2297;51.442;6.996;2023-02-17T13:39:32;3.47;;;2.95;;
4569;SDS011;2297;51.442;6.996;2023-02-17T13:42:02;4.32;;;2.95;;
4569;SDS011;2297;51.442;6.996;2023-02-17T13:44:49;4.38;;;2.78;;
4569;SDS011;2297;51.442;6.996;2023-02-17T13:47:17;5.05;;;2.88;;
4569;SDS011;2297;51.442;6.996;2023-02-17T13:49:51;3.05;;;2.38;;
4569;SDS011;2297;51.442;6.996;2023-02-17T13:52:21;3.38;;;2.65;;
4569;SDS011;2297;51.442;6.996;2023-02-17T13:54:50;5.20;;;2.70;;
4569;SDS011;2297;51.442;6.996;2023-02-17T13:57:26;4.10;;;2.40;;
4569;SDS011;2297;51.442;6.996;2023-02-17T14:00:04;4.75;;;2.58;;
4569;SDS011;2297;51.442;6.996;2023-02-17T14:02:33;5.45;;;2.88;;
4569;SDS011;2297;51.442;6.996;2023-02-17T14:05:08;4.30;;;2.88;;
4569;SDS011;2297;51.442;6.996;2023-02-17T14:07:42;5.03;;;2.65;;
4569;SDS011;2297;51.442;6.996;2023-02-17T14:10:15;5.05;;;2.65;;
4569;SDS011;2297;51.442;6.996;2023-02-17T14:12:46;3.65;;;2.60;;
4569;SDS011;2297;51.442;6.996;2023-02-17T14:15:14;4.32;;;2.70;;
4569;SDS011;2297;51.442;6.996;2023-02-17T14:17:42;6.68;;;2.75;;
4569;SDS011;2297;51.442;6.996;2023-02-17T14:20:22;4.65;;;2.97;;
4569;SDS011;2297;51.442;6.996;2023-02-17T14:22:57;4.25;;;2.78;;
4569;SDS011;2297;51.442;6.996;2023-02-17T14:25:26;4.03;;;2.88;;
4569;SDS011;2297;51.442;6.996;2023-02-17T14:27:56;5.95;;;2.60;;
4569;SDS011;2297;51.442;6.996;2023-02-17T14:30:29;4.03;;;2.80;;
4569;SDS011;2297;51.442;6.996;2023-02-17T14:35:29;4.72;;;2.78;;
4569;SDS011;2297;51.442;6.996;2023-02-17T14:38:05;5.93;;;2.88;;
4569;SDS011;2297;51.442;6.996;2023-02-17T14:40:33;3.47;;;2.85;;
4569;SDS011;2297;51.442;6.996;2023-02-17T14:43:01;4.50;;;3.05;;
4569;SDS011;2297;51.442;6.996;2023-02-17T14:45:27;4.45;;;3.22;;
4569;SDS011;2297;51.442;6.996;2023-02-17T14:47:54;5.15;;;3.25;;
4569;SDS011;2297;51.442;6.996;2023-02-17T14:50:21;4.90;;;3.20;;
4569;SDS011;2297;51.442;6.996;2023-02-17T14:52:48;5.30;;;3.60;;
4569;SDS011;2297;51.442;6.996;2023-02-17T14:55:17;8.48;;;3.97;;
4569;SDS011;2297;51.442;6.996;2023-02-17T14:57:53;6.22;;;4.00;;
4569;SDS011;2297;51.442;6.996;2023-02-17T15:00:21;6.90;;;4.15;;
4569;SDS011;2297;51.442;6.996;2023-02-17T15:02:48;5.25;;;3.72;;
4569;SDS011;2297;51.442;6.996;2023-02-17T15:05:15;4.80;;;3.78;;
4569;SDS011;2297;51.442;6.996;2023-02-17T15:07:42;5.97;;;3.80;;
4569;SDS011;2297;51.442;6.996;2023-02-17T15:10:19;4.95;;;4.18;;
4569;SDS011;2297;51.442;6.996;2023-02-17T15:12:50;5.57;;;4.22;;
4569;SDS011;2297;51.442;6.996;2023-02-17T15:15:17;4.75;;;4.05;;
4569;SDS011;2297;51.442;6.996;2023-02-17T15:17:45;6.28;;;4.43;;
4569;SDS011;2297;51.442;6.996;2023-02-17T15:20:12;10.38;;;4.68;;
4569;SDS011;2297;51.442;6.996;2023-02-17T15:22:40;9.63;;;5.28;;
4569;SDS011;2297;51.442;6.996;2023-02-17T15:25:11;8.23;;;4.97;;
4569;SDS011;2297;51.442;6.996;2023-02-17T15:27:39;7.43;;;4.60;;
4569;SDS011;2297;51.442;6.996;2023-02-17T15:30:09;9.55;;;4.82;;
4569;SDS011;2297;51.442;6.996;2023-02-17T15:32:38;7.88;;;4.70;;
4569;SDS011;2297;51.442;6.996;2023-02-17T15:35:11;6.65;;;4.90;;
4569;SDS011;2297;51.442;6.996;2023-02-17T15:37:41;7.55;;;4.80;;
4569;SDS011;2297;51.442;6.996;2023-02-17T15:40:11;7.10;;;4.18;;
4569;SDS011;2297;51.442;6.996;2023-02-17T15:42:39;7.15;;;5.10;;
4569;SDS011;2297;51.442;6.996;2023-02-17T15:45:08;8.05;;;5.38;;
4569;SDS011;2297;51.442;6.996;2023-02-17T15:47:37;9.45;;;5.32;;
4569;SDS011;2297;51.442;6.996;2023-02-17T15:50:05;8.95;;;5.70;;
4569;SDS011;2297;51.442;6.996;2023-02-17T15:52:38;6.07;;;5.00;;